sensor_id;sensor_type;location;lat;lon;timestamp;temperature;humidity
5802;DHT22;2927;49.366;8.530;2023-05-31T00:00:15;17.90;1.00
5802;DHT22;2927;49.366;8.530;2023-05-31T00:02:41;17.80;1.00
5802;DHT22;2927;49.366;8.530;2023-05-31T00:05:07;17.80;1.00
5802;DHT22;2927;49.366;8.530;2023-05-31T00:07:32;17.70;1.00
5802;DHT22;2927;49.366;8.530;2023-05-31T00:09:58;17.70;1.00
5802;DHT22;2927;49.366;8.530;2023-05-31T00:12:23;17.60;1.00
5802;DHT22;2927;49.366;8.530;2023-05-31T00:14:49;17.60;1.00
5802;DHT22;2927;49.366;8.530;2023-05-31T00:17:14;17.60;1.00
5802;DHT22;2927;49.366;8.530;2023-05-31T00:19:40;17.60;1.00
5802;DHT22;2927;49.366;8.530;2023-05-31T00:22:05;17.50;1.00
5802;DHT22;2927;49.366;8.530;2023-05-31T00:24:31;17.60;1.00
5802;DHT22;2927;49.366;8.530;2023-05-31T00:26:56;17.50;1.00
5802;DHT22;2927;49.366;8.530;2023-05-31T00:29:22;17.50;1.00
5802;DHT22;2927;49.366;8.530;2023-05-31T00:31:48;17.40;1.00
5802;DHT22;2927;49.366;8.530;2023-05-31T00:34:13;17.40;1.00
5802;DHT22;2927;49.366;8.530;2023-05-31T00:36:39;17.30;1.00
5802;DHT22;2927;49.366;8.530;2023-05-31T00:39:04;17.30;1.00
5802;DHT22;2927;49.366;8.530;2023-05-31T00:41:30;17.30;1.00
5802;DHT22;2927;49.366;8.530;2023-05-31T00:43:56;17.30;1.00
5802;DHT22;2927;49.366;8.530;2023-05-31T00:46:27;17.30;1.00
5802;DHT22;2927;49.366;8.530;2023-05-31T00:48:54;17.30;1.00
5802;DHT22;2927;49.366;8.530;2023-05-31T00:51:19;17.20;1.00
5802;DHT22;2927;49.366;8.530;2023-05-31T00:53:45;17.20;1.00
5802;DHT22;2927;49.366;8.530;2023-05-31T00:56:12;17.30;1.00
5802;DHT22;2927;49.366;8.530;2023-05-31T00:58:40;17.30;1.00
5802;DHT22;2927;49.366;8.530;2023-05-31T01:01:07;17.20;1.00
5802;DHT22;2927;49.366;8.530;2023-05-31T01:03:33;17.30;1.00
5802;DHT22;2927;49.366;8.530;2023-05-31T01:05:59;17.30;1.00
5802;DHT22;2927;49.366;8.530;2023-05-31T01:08:26;17.30;1.00
5802;DHT22;2927;49.366;8.530;2023-05-31T01:10:53;17.40;1.00
5802;DHT22;2927;49.366;8.530;2023-05-31T01:13:25;17.30;1.00
5802;DHT22;2927;49.366;8.530;2023-05-31T01:16:06;17.30;1.00
5802;DHT22;2927;49.366;8.530;2023-05-31T01:18:40;17.20;1.00
5802;DHT22;2927;49.366;8.530;2023-05-31T01:21:11;17.10;1.00
5802;DHT22;2927;49.366;8.530;2023-05-31T01:26:40;17.10;1.00
5802;DHT22;2927;49.366;8.530;2023-05-31T01:29:10;17.30;1.00
5802;DHT22;2927;49.366;8.530;2023-05-31T01:31:37;17.30;1.00
5802;DHT22;2927;49.366;8.530;2023-05-31T01:34:05;17.30;1.00
5802;DHT22;2927;49.366;8.530;2023-05-31T01:36:31;17.30;1.00
5802;DHT22;2927;49.366;8.530;2023-05-31T01:38:57;17.30;1.00
5802;DHT22;2927;49.366;8.530;2023-05-31T01:41:25;17.40;1.00
5802;DHT22;2927;49.366;8.530;2023-05-31T01:43:52;17.70;1.00
5802;DHT22;2927;49.366;8.530;2023-05-31T01:46:19;17.80;1.00
5802;DHT22;2927;49.366;8.530;2023-05-31T01:48:46;17.80;1.00
5802;DHT22;2927;49.366;8.530;2023-05-31T01:51:13;17.80;1.00
5802;DHT22;2927;49.366;8.530;2023-05-31T01:53:40;17.80;1.00
5802;DHT22;2927;49.366;8.530;2023-05-31T01:56:07;17.70;1.00
5802;DHT22;2927;49.366;8.530;2023-05-31T01:58:35;17.50;1.00
5802;DHT22;2927;49.366;8.530;2023-05-31T02:01:01;17.50;1.00
5802;DHT22;2927;49.366;8.530;2023-05-31T02:03:27;17.50;1.00
5802;DHT22;2927;49.366;8.530;2023-05-31T02:06:00;17.40;1.00
5802;DHT22;2927;49.366;8.530;2023-05-31T02:08:26;17.30;1.00
5802;DHT22;2927;49.366;8.530;2023-05-31T02:10:53;17.20;1.00
5802;DHT22;2927;49.366;8.530;2023-05-31T02:13:19;17.10;1.00
5802;DHT22;2927;49.366;8.530;2023-05-31T02:15:45;17.00;1.00
5802;DHT22;2927;49.366;8.530;2023-05-31T02:18:11;17.00;1.00
5802;DHT22;2927;49.366;8.530;2023-05-31T02:20:38;16.90;1.00
5802;DHT22;2927;49.366;8.530;2023-05-31T02:23:03;16.70;1.00
5802;DHT22;2927;49.366;8.530;2023-05-31T02:25:29;16.60;1.00
5802;DHT22;2927;49.366;8.530;2023-05-31T02:27:54;16.60;1.00
5802;DHT22;2927;49.366;8.530;2023-05-31T02:30:20;16.50;1.00
5802;DHT22;2927;49.366;8.530;2023-05-31T02:32:46;16.50;1.00
5802;DHT22;2927;49.366;8.530;2023-05-31T02:35:11;16.50;1.00
5802;DHT22;2927;49.366;8.530;2023-05-31T02:37:38;16.40;1.00
5802;DHT22;2927;49.366;8.530;2023-05-31T02:40:05;16.40;1.00
5802;DHT22;2927;49.366;8.530;2023-05-31T02:42:34;16.40;1.00
5802;DHT22;2927;49.366;8.530;2023-05-31T02:45:00;16.50;1.00
5802;DHT22;2927;49.366;8.530;2023-05-31T02:47:25;16.40;1.00
5802;DHT22;2927;49.366;8.530;2023-05-31T02:49:51;16.40;1.00
5802;DHT22;2927;49.366;8.530;2023-05-31T02:52:16;16.40;1.00
5802;DHT22;2927;49.366;8.530;2023-05-31T02:54:42;16.40;1.00
5802;DHT22;2927;49.366;8.530;2023-05-31T02:57:07;16.30;1.00
5802;DHT22;2927;49.366;8.530;2023-05-31T02:59:33;16.30;1.00
5802;DHT22;2927;49.366;8.530;2023-05-31T03:01:58;16.20;1.00
5802;DHT22;2927;49.366;8.530;2023-05-31T03:04:25;16.20;1.00
5802;DHT22;2927;49.366;8.530;2023-05-31T03:06:50;16.10;1.00
5802;DHT22;2927;49.366;8.530;2023-05-31T03:09:16;16.10;1.00
5802;DHT22;2927;49.366;8.530;2023-05-31T03:11:44;16.10;1.00
5802;DHT22;2927;49.366;8.530;2023-05-31T03:14:09;16.10;1.00
5802;DHT22;2927;49.366;8.530;2023-05-31T03:16:35;16.00;1.00
5802;DHT22;2927;49.366;8.530;2023-05-31T03:19:00;16.00;3.90
5802;DHT22;2927;49.366;8.530;2023-05-31T03:21:26;15.90;1.00
5802;DHT22;2927;49.366;8.530;2023-05-31T03:23:51;15.90;1.00
5802;DHT22;2927;49.366;8.530;2023-05-31T03:26:17;15.90;1.00
5802;DHT22;2927;49.366;8.530;2023-05-31T03:28:42;15.90;1.00
5802;DHT22;2927;49.366;8.530;2023-05-31T03:31:08;15.90;1.00
5802;DHT22;2927;49.366;8.530;2023-05-31T03:33:33;15.80;1.00
5802;DHT22;2927;49.366;8.530;2023-05-31T03:36:01;15.70;1.00
5802;DHT22;2927;49.366;8.530;2023-05-31T03:38:27;15.70;1.00
5802;DHT22;2927;49.366;8.530;2023-05-31T03:40:53;15.70;1.00
5802;DHT22;2927;49.366;8.530;2023-05-31T03:43:19;15.70;1.00
5802;DHT22;2927;49.366;8.530;2023-05-31T03:45:44;15.80;1.00
5802;DHT22;2927;49.366;8.530;2023-05-31T03:48:10;15.70;1.00
5802;DHT22;2927;49.366;8.530;2023-05-31T03:50:35;15.60;1.00
5802;DHT22;2927;49.366;8.530;2023-05-31T03:53:01;15.60;1.00
5802;DHT22;2927;49.366;8.530;2023-05-31T03:55:26;15.70;3.40
5802;DHT22;2927;49.366;8.530;2023-05-31T03:57:52;15.60;11.90
5802;DHT22;2927;49.366;8.530;2023-05-31T04:00:17;15.50;74.30
5802;DHT22;2927;49.366;8.530;2023-05-31T04:02:43;15.40;99.90
5802;DHT22;2927;49.366;8.530;2023-05-31T04:05:08;15.20;99.90
5802;DHT22;2927;49.366;8.530;2023-05-31T04:07:34;15.20;99.90
5802;DHT22;2927;49.366;8.530;2023-05-31T04:09:59;15.10;99.90
5802;DHT22;2927;49.366;8.530;2023-05-31T04:12:25;15.00;99.90
5802;DHT22;2927;49.366;8.530;2023-05-31T04:14:50;14.90;99.90
5802;DHT22;2927;49.366;8.530;2023-05-31T04:17:16;14.90;99.90
5802;DHT22;2927;49.366;8.530;2023-05-31T04:19:42;14.80;99.90
5802;DHT22;2927;49.366;8.530;2023-05-31T04:22:07;14.80;99.90
5802;DHT22;2927;49.366;8.530;2023-05-31T04:24:33;14.90;99.90
5802;DHT22;2927;49.366;8.530;2023-05-31T04:26:58;15.10;99.90
5802;DHT22;2927;49.366;8.530;2023-05-31T04:29:24;15.10;99.90
5802;DHT22;2927;49.366;8.530;2023-05-31T04:31:51;15.20;99.90
5802;DHT22;2927;49.366;8.530;2023-05-31T04:34:17;15.30;99.90
5802;DHT22;2927;49.366;8.530;2023-05-31T04:36:44;15.40;99.90
5802;DHT22;2927;49.366;8.530;2023-05-31T04:39:16;15.50;99.90
5802;DHT22;2927;49.366;8.530;2023-05-31T04:41:43;15.60;99.90
5802;DHT22;2927;49.366;8.530;2023-05-31T04:44:08;15.70;99.90
5802;DHT22;2927;49.366;8.530;2023-05-31T04:46:34;15.70;99.90
5802;DHT22;2927;49.366;8.530;2023-05-31T04:48:59;15.80;99.90
5802;DHT22;2927;49.366;8.530;2023-05-31T04:51:26;15.80;99.90
5802;DHT22;2927;49.366;8.530;2023-05-31T04:53:52;15.90;99.90
5802;DHT22;2927;49.366;8.530;2023-05-31T04:56:17;16.10;99.90
5802;DHT22;2927;49.366;8.530;2023-05-31T04:58:44;16.10;99.90
5802;DHT22;2927;49.366;8.530;2023-05-31T05:01:10;16.20;99.90
5802;DHT22;2927;49.366;8.530;2023-05-31T05:03:40;16.30;99.90
5802;DHT22;2927;49.366;8.530;2023-05-31T05:06:16;16.40;99.90
5802;DHT22;2927;49.366;8.530;2023-05-31T05:08:43;16.40;99.90
5802;DHT22;2927;49.366;8.530;2023-05-31T05:11:08;16.60;99.90
5802;DHT22;2927;49.366;8.530;2023-05-31T05:13:35;16.60;99.90
5802;DHT22;2927;49.366;8.530;2023-05-31T05:16:00;16.70;99.90
5802;DHT22;2927;49.366;8.530;2023-05-31T05:18:27;16.80;99.90
5802;DHT22;2927;49.366;8.530;2023-05-31T05:20:53;16.80;99.90
5802;DHT22;2927;49.366;8.530;2023-05-31T05:23:18;16.90;99.90
5802;DHT22;2927;49.366;8.530;2023-05-31T05:25:44;17.00;99.90
5802;DHT22;2927;49.366;8.530;2023-05-31T05:28:10;17.20;99.90
5802;DHT22;2927;49.366;8.530;2023-05-31T05:30:35;17.30;99.90
5802;DHT22;2927;49.366;8.530;2023-05-31T05:33:01;17.40;99.90
5802;DHT22;2927;49.366;8.530;2023-05-31T05:35:26;17.60;99.90
5802;DHT22;2927;49.366;8.530;2023-05-31T05:37:52;17.80;99.90
5802;DHT22;2927;49.366;8.530;2023-05-31T05:40:18;18.00;99.90
5802;DHT22;2927;49.366;8.530;2023-05-31T05:42:44;18.20;99.90
5802;DHT22;2927;49.366;8.530;2023-05-31T05:45:10;18.50;94.00
5802;DHT22;2927;49.366;8.530;2023-05-31T05:47:36;18.60;90.80
5802;DHT22;2927;49.366;8.530;2023-05-31T05:50:02;19.00;76.80
5802;DHT22;2927;49.366;8.530;2023-05-31T05:52:27;19.60;57.80
5802;DHT22;2927;49.366;8.530;2023-05-31T05:54:53;21.60;16.60
5802;DHT22;2927;49.366;8.530;2023-05-31T05:57:18;24.30;1.00
5802;DHT22;2927;49.366;8.530;2023-05-31T05:59:44;25.80;1.00
5802;DHT22;2927;49.366;8.530;2023-05-31T06:02:10;26.70;1.00
5802;DHT22;2927;49.366;8.530;2023-05-31T06:04:36;27.40;1.00
5802;DHT22;2927;49.366;8.530;2023-05-31T06:07:02;28.30;1.00
5802;DHT22;2927;49.366;8.530;2023-05-31T06:09:28;28.80;1.00
5802;DHT22;2927;49.366;8.530;2023-05-31T06:11:53;29.10;1.00
5802;DHT22;2927;49.366;8.530;2023-05-31T06:14:19;29.20;1.00
5802;DHT22;2927;49.366;8.530;2023-05-31T06:16:44;29.70;1.00
5802;DHT22;2927;49.366;8.530;2023-05-31T06:19:10;30.20;1.00
5802;DHT22;2927;49.366;8.530;2023-05-31T06:21:35;30.10;1.00
5802;DHT22;2927;49.366;8.530;2023-05-31T06:24:01;30.10;1.00
5802;DHT22;2927;49.366;8.530;2023-05-31T06:26:28;30.30;1.00
5802;DHT22;2927;49.366;8.530;2023-05-31T06:28:53;29.80;1.00
5802;DHT22;2927;49.366;8.530;2023-05-31T06:31:19;30.00;1.00
5802;DHT22;2927;49.366;8.530;2023-05-31T06:33:45;30.80;1.00
5802;DHT22;2927;49.366;8.530;2023-05-31T06:36:10;30.60;1.00
5802;DHT22;2927;49.366;8.530;2023-05-31T06:38:36;29.90;1.00
5802;DHT22;2927;49.366;8.530;2023-05-31T06:41:01;29.50;1.00
5802;DHT22;2927;49.366;8.530;2023-05-31T06:43:27;28.90;1.00
5802;DHT22;2927;49.366;8.530;2023-05-31T06:45:52;28.80;1.00
5802;DHT22;2927;49.366;8.530;2023-05-31T06:48:18;28.40;1.00
5802;DHT22;2927;49.366;8.530;2023-05-31T06:50:43;29.20;1.00
5802;DHT22;2927;49.366;8.530;2023-05-31T06:53:09;29.20;1.00
5802;DHT22;2927;49.366;8.530;2023-05-31T06:55:38;29.30;1.00
5802;DHT22;2927;49.366;8.530;2023-05-31T06:58:03;29.50;1.00
5802;DHT22;2927;49.366;8.530;2023-05-31T07:00:29;28.80;1.00
5802;DHT22;2927;49.366;8.530;2023-05-31T07:02:55;29.10;1.00
5802;DHT22;2927;49.366;8.530;2023-05-31T07:05:21;29.60;1.00
5802;DHT22;2927;49.366;8.530;2023-05-31T07:07:46;29.80;1.00
5802;DHT22;2927;49.366;8.530;2023-05-31T07:10:12;30.30;1.00
5802;DHT22;2927;49.366;8.530;2023-05-31T07:12:38;29.60;1.00
5802;DHT22;2927;49.366;8.530;2023-05-31T07:15:04;29.80;1.00
5802;DHT22;2927;49.366;8.530;2023-05-31T07:17:30;30.50;1.00
5802;DHT22;2927;49.366;8.530;2023-05-31T07:19:56;30.80;1.00
5802;DHT22;2927;49.366;8.530;2023-05-31T07:22:22;30.50;1.00
5802;DHT22;2927;49.366;8.530;2023-05-31T07:24:47;30.80;1.00
5802;DHT22;2927;49.366;8.530;2023-05-31T07:27:13;31.00;1.00
5802;DHT22;2927;49.366;8.530;2023-05-31T07:29:39;31.80;1.00
5802;DHT22;2927;49.366;8.530;2023-05-31T07:32:05;31.40;1.00
5802;DHT22;2927;49.366;8.530;2023-05-31T07:34:31;30.20;1.00
5802;DHT22;2927;49.366;8.530;2023-05-31T07:36:57;29.30;1.00
5802;DHT22;2927;49.366;8.530;2023-05-31T07:39:22;29.40;1.00
5802;DHT22;2927;49.366;8.530;2023-05-31T07:41:48;30.30;1.00
5802;DHT22;2927;49.366;8.530;2023-05-31T07:44:14;30.80;1.00
5802;DHT22;2927;49.366;8.530;2023-05-31T07:46:42;30.60;1.00
5802;DHT22;2927;49.366;8.530;2023-05-31T07:49:07;31.20;1.00
5802;DHT22;2927;49.366;8.530;2023-05-31T07:51:33;31.20;1.00
5802;DHT22;2927;49.366;8.530;2023-05-31T07:53:59;30.70;1.00
5802;DHT22;2927;49.366;8.530;2023-05-31T07:56:24;30.60;1.00
5802;DHT22;2927;49.366;8.530;2023-05-31T07:58:50;30.60;1.00
5802;DHT22;2927;49.366;8.530;2023-05-31T08:01:16;30.20;1.00
5802;DHT22;2927;49.366;8.530;2023-05-31T08:03:41;30.60;1.00
5802;DHT22;2927;49.366;8.530;2023-05-31T08:06:07;30.00;1.00
5802;DHT22;2927;49.366;8.530;2023-05-31T08:08:33;30.90;1.00
5802;DHT22;2927;49.366;8.530;2023-05-31T08:11:00;30.80;1.00
5802;DHT22;2927;49.366;8.530;2023-05-31T08:13:26;31.40;1.00
5802;DHT22;2927;49.366;8.530;2023-05-31T08:15:52;31.20;1.00
5802;DHT22;2927;49.366;8.530;2023-05-31T08:18:18;31.50;1.00
5802;DHT22;2927;49.366;8.530;2023-05-31T08:20:43;31.60;1.00
5802;DHT22;2927;49.366;8.530;2023-05-31T08:23:16;30.80;1.00
5802;DHT22;2927;49.366;8.530;2023-05-31T08:25:42;30.50;1.00
5802;DHT22;2927;49.366;8.530;2023-05-31T08:28:08;30.90;1.00
5802;DHT22;2927;49.366;8.530;2023-05-31T08:30:34;31.70;1.00
5802;DHT22;2927;49.366;8.530;2023-05-31T08:32:59;31.30;1.00
5802;DHT22;2927;49.366;8.530;2023-05-31T08:35:25;31.20;1.00
5802;DHT22;2927;49.366;8.530;2023-05-31T08:37:51;31.10;1.00
5802;DHT22;2927;49.366;8.530;2023-05-31T08:40:16;31.20;1.00
5802;DHT22;2927;49.366;8.530;2023-05-31T08:43:05;31.10;1.00
5802;DHT22;2927;49.366;8.530;2023-05-31T08:45:34;30.60;1.00
5802;DHT22;2927;49.366;8.530;2023-05-31T08:48:17;30.70;1.00
5802;DHT22;2927;49.366;8.530;2023-05-31T08:50:47;31.00;1.00
5802;DHT22;2927;49.366;8.530;2023-05-31T08:53:13;30.90;1.00
5802;DHT22;2927;49.366;8.530;2023-05-31T08:55:41;30.40;1.00
5802;DHT22;2927;49.366;8.530;2023-05-31T08:58:09;30.50;1.00
5802;DHT22;2927;49.366;8.530;2023-05-31T09:00:36;30.30;1.00
5802;DHT22;2927;49.366;8.530;2023-05-31T09:03:05;30.40;1.00
5802;DHT22;2927;49.366;8.530;2023-05-31T09:05:31;30.00;1.00
5802;DHT22;2927;49.366;8.530;2023-05-31T09:07:58;30.10;1.00
5802;DHT22;2927;49.366;8.530;2023-05-31T09:10:24;30.40;1.00
5802;DHT22;2927;49.366;8.530;2023-05-31T09:12:50;31.40;1.00
5802;DHT22;2927;49.366;8.530;2023-05-31T09:15:16;31.40;1.00
5802;DHT22;2927;49.366;8.530;2023-05-31T09:17:45;31.70;1.00
5802;DHT22;2927;49.366;8.530;2023-05-31T09:20:13;30.80;1.00
5802;DHT22;2927;49.366;8.530;2023-05-31T09:22:39;30.90;1.00
5802;DHT22;2927;49.366;8.530;2023-05-31T09:25:05;31.10;1.00
5802;DHT22;2927;49.366;8.530;2023-05-31T09:27:36;30.80;1.00
5802;DHT22;2927;49.366;8.530;2023-05-31T09:30:09;31.20;1.00
5802;DHT22;2927;49.366;8.530;2023-05-31T09:32:35;30.90;1.00
5802;DHT22;2927;49.366;8.530;2023-05-31T09:35:15;31.50;1.00
5802;DHT22;2927;49.366;8.530;2023-05-31T09:37:48;31.30;1.00
5802;DHT22;2927;49.366;8.530;2023-05-31T09:40:15;31.60;1.00
5802;DHT22;2927;49.366;8.530;2023-05-31T09:42:50;31.00;1.00
5802;DHT22;2927;49.366;8.530;2023-05-31T09:45:17;31.10;1.00
5802;DHT22;2927;49.366;8.530;2023-05-31T09:47:43;30.60;1.00
5802;DHT22;2927;49.366;8.530;2023-05-31T09:50:10;30.30;1.00
5802;DHT22;2927;49.366;8.530;2023-05-31T09:52:35;30.10;1.00
5802;DHT22;2927;49.366;8.530;2023-05-31T09:55:05;30.70;1.00
5802;DHT22;2927;49.366;8.530;2023-05-31T09:57:33;30.90;1.00
5802;DHT22;2927;49.366;8.530;2023-05-31T10:00:04;30.50;1.00
5802;DHT22;2927;49.366;8.530;2023-05-31T10:02:37;30.00;1.00
5802;DHT22;2927;49.366;8.530;2023-05-31T10:05:03;30.10;1.00
5802;DHT22;2927;49.366;8.530;2023-05-31T10:07:31;30.40;1.00
5802;DHT22;2927;49.366;8.530;2023-05-31T10:09:56;30.10;1.00
5802;DHT22;2927;49.366;8.530;2023-05-31T10:12:24;30.80;1.00
5802;DHT22;2927;49.366;8.530;2023-05-31T10:14:57;31.10;1.00
5802;DHT22;2927;49.366;8.530;2023-05-31T10:17:33;31.10;1.00
5802;DHT22;2927;49.366;8.530;2023-05-31T10:20:02;30.30;1.00
5802;DHT22;2927;49.366;8.530;2023-05-31T10:22:31;30.30;1.00
5802;DHT22;2927;49.366;8.530;2023-05-31T10:25:05;29.10;1.00
5802;DHT22;2927;49.366;8.530;2023-05-31T10:27:39;28.60;1.00
5802;DHT22;2927;49.366;8.530;2023-05-31T10:30:09;28.10;1.00
5802;DHT22;2927;49.366;8.530;2023-05-31T10:32:42;27.90;1.00
5802;DHT22;2927;49.366;8.530;2023-05-31T10:35:11;27.80;1.00
5802;DHT22;2927;49.366;8.530;2023-05-31T10:37:39;27.30;1.00
5802;DHT22;2927;49.366;8.530;2023-05-31T10:40:21;27.30;1.00
5802;DHT22;2927;49.366;8.530;2023-05-31T10:42:53;27.00;1.00
5802;DHT22;2927;49.366;8.530;2023-05-31T10:45:38;26.40;1.00
5802;DHT22;2927;49.366;8.530;2023-05-31T10:50:59;26.60;1.00
5802;DHT22;2927;49.366;8.530;2023-05-31T10:53:36;26.30;1.00
5802;DHT22;2927;49.366;8.530;2023-05-31T10:56:04;26.10;1.00
5802;DHT22;2927;49.366;8.530;2023-05-31T10:58:35;26.10;1.00
5802;DHT22;2927;49.366;8.530;2023-05-31T11:01:12;25.90;1.00
5802;DHT22;2927;49.366;8.530;2023-05-31T11:03:46;25.50;1.00
5802;DHT22;2927;49.366;8.530;2023-05-31T11:06:14;25.50;1.00
5802;DHT22;2927;49.366;8.530;2023-05-31T11:08:59;25.80;1.00
5802;DHT22;2927;49.366;8.530;2023-05-31T11:14:02;25.60;1.00
5802;DHT22;2927;49.366;8.530;2023-05-31T11:16:33;25.70;1.00
5802;DHT22;2927;49.366;8.530;2023-05-31T11:19:13;25.50;1.00
5802;DHT22;2927;49.366;8.530;2023-05-31T11:21:52;25.60;1.00
5802;DHT22;2927;49.366;8.530;2023-05-31T11:27:13;25.80;1.00
5802;DHT22;2927;49.366;8.530;2023-05-31T11:34:57;26.10;1.00
5802;DHT22;2927;49.366;8.530;2023-05-31T11:37:27;26.00;1.00
5802;DHT22;2927;49.366;8.530;2023-05-31T11:39:54;25.80;1.00
5802;DHT22;2927;49.366;8.530;2023-05-31T11:42:20;25.70;1.00
5802;DHT22;2927;49.366;8.530;2023-05-31T11:44:46;25.90;1.00
5802;DHT22;2927;49.366;8.530;2023-05-31T11:47:20;25.90;1.00
5802;DHT22;2927;49.366;8.530;2023-05-31T11:49:48;26.10;1.00
5802;DHT22;2927;49.366;8.530;2023-05-31T11:52:16;26.10;1.00
5802;DHT22;2927;49.366;8.530;2023-05-31T11:54:43;26.00;1.00
5802;DHT22;2927;49.366;8.530;2023-05-31T11:57:10;25.70;1.00
5802;DHT22;2927;49.366;8.530;2023-05-31T11:59:37;25.70;1.00
5802;DHT22;2927;49.366;8.530;2023-05-31T12:02:05;25.60;1.00
5802;DHT22;2927;49.366;8.530;2023-05-31T12:04:41;25.80;1.00
5802;DHT22;2927;49.366;8.530;2023-05-31T12:07:10;26.00;1.00
5802;DHT22;2927;49.366;8.530;2023-05-31T12:09:36;26.10;1.00
5802;DHT22;2927;49.366;8.530;2023-05-31T12:12:03;26.10;1.00
5802;DHT22;2927;49.366;8.530;2023-05-31T12:14:31;26.30;1.00
5802;DHT22;2927;49.366;8.530;2023-05-31T12:17:03;26.30;1.00
5802;DHT22;2927;49.366;8.530;2023-05-31T12:19:34;26.30;1.00
5802;DHT22;2927;49.366;8.530;2023-05-31T12:22:01;26.10;1.00
5802;DHT22;2927;49.366;8.530;2023-05-31T12:24:28;26.00;1.00
5802;DHT22;2927;49.366;8.530;2023-05-31T12:26:54;26.00;1.00
5802;DHT22;2927;49.366;8.530;2023-05-31T12:29:27;26.00;1.00
5802;DHT22;2927;49.366;8.530;2023-05-31T12:32:00;26.10;1.00
5802;DHT22;2927;49.366;8.530;2023-05-31T12:34:27;25.70;1.00
5802;DHT22;2927;49.366;8.530;2023-05-31T12:36:56;25.80;1.00
5802;DHT22;2927;49.366;8.530;2023-05-31T12:39:22;25.90;1.00
5802;DHT22;2927;49.366;8.530;2023-05-31T12:41:50;26.20;1.00
5802;DHT22;2927;49.366;8.530;2023-05-31T12:44:20;26.30;1.00
5802;DHT22;2927;49.366;8.530;2023-05-31T12:46:50;26.40;1.00
5802;DHT22;2927;49.366;8.530;2023-05-31T12:49:21;26.30;1.00
5802;DHT22;2927;49.366;8.530;2023-05-31T12:51:57;26.40;1.00
5802;DHT22;2927;49.366;8.530;2023-05-31T12:54:25;26.10;1.00
5802;DHT22;2927;49.366;8.530;2023-05-31T12:56:51;26.40;1.00
5802;DHT22;2927;49.366;8.530;2023-05-31T12:59:16;26.30;1.00
5802;DHT22;2927;49.366;8.530;2023-05-31T13:01:43;26.40;1.00
5802;DHT22;2927;49.366;8.530;2023-05-31T13:04:10;26.40;1.00
5802;DHT22;2927;49.366;8.530;2023-05-31T13:06:39;26.20;1.00
5802;DHT22;2927;49.366;8.530;2023-05-31T13:09:06;26.20;1.00
5802;DHT22;2927;49.366;8.530;2023-05-31T13:11:38;26.30;1.00
5802;DHT22;2927;49.366;8.530;2023-05-31T13:14:05;26.60;1.00
5802;DHT22;2927;49.366;8.530;2023-05-31T13:16:32;26.50;1.00
5802;DHT22;2927;49.366;8.530;2023-05-31T13:19:02;26.30;1.00
5802;DHT22;2927;49.366;8.530;2023-05-31T13:21:29;26.40;1.00
5802;DHT22;2927;49.366;8.530;2023-05-31T13:23:55;26.40;1.00
5802;DHT22;2927;49.366;8.530;2023-05-31T13:26:22;26.30;1.00
5802;DHT22;2927;49.366;8.530;2023-05-31T13:28:49;26.40;1.00
5802;DHT22;2927;49.366;8.530;2023-05-31T13:31:15;26.30;1.00
5802;DHT22;2927;49.366;8.530;2023-05-31T13:33:41;26.40;1.00
5802;DHT22;2927;49.366;8.530;2023-05-31T13:36:07;26.40;1.00
5802;DHT22;2927;49.366;8.530;2023-05-31T13:38:32;26.50;1.00
5802;DHT22;2927;49.366;8.530;2023-05-31T13:40:58;26.40;1.00
5802;DHT22;2927;49.366;8.530;2023-05-31T13:43:24;26.30;1.00
5802;DHT22;2927;49.366;8.530;2023-05-31T13:45:50;26.40;1.00
5802;DHT22;2927;49.366;8.530;2023-05-31T13:48:17;26.30;1.00
5802;DHT22;2927;49.366;8.530;2023-05-31T13:50:43;26.40;1.00
5802;DHT22;2927;49.366;8.530;2023-05-31T13:53:09;26.30;1.00
5802;DHT22;2927;49.366;8.530;2023-05-31T13:55:38;26.10;1.00
5802;DHT22;2927;49.366;8.530;2023-05-31T13:58:04;26.30;1.00
5802;DHT22;2927;49.366;8.530;2023-05-31T14:00:33;26.60;1.00
5802;DHT22;2927;49.366;8.530;2023-05-31T14:02:59;26.50;1.00
5802;DHT22;2927;49.366;8.530;2023-05-31T14:05:25;26.40;1.00
5802;DHT22;2927;49.366;8.530;2023-05-31T14:07:54;26.40;1.00
5802;DHT22;2927;49.366;8.530;2023-05-31T14:10:20;26.50;1.00
5802;DHT22;2927;49.366;8.530;2023-05-31T14:12:46;26.70;1.00
5802;DHT22;2927;49.366;8.530;2023-05-31T14:15:13;26.70;1.00
5802;DHT22;2927;49.366;8.530;2023-05-31T14:17:38;26.70;1.00
5802;DHT22;2927;49.366;8.530;2023-05-31T14:20:04;26.40;1.00
5802;DHT22;2927;49.366;8.530;2023-05-31T14:22:31;26.40;1.00
5802;DHT22;2927;49.366;8.530;2023-05-31T14:24:57;26.60;1.00
5802;DHT22;2927;49.366;8.530;2023-05-31T14:27:22;26.70;1.00
5802;DHT22;2927;49.366;8.530;2023-05-31T14:29:48;26.90;1.00
5802;DHT22;2927;49.366;8.530;2023-05-31T14:32:13;26.70;1.00
5802;DHT22;2927;49.366;8.530;2023-05-31T14:34:44;26.70;1.00
5802;DHT22;2927;49.366;8.530;2023-05-31T14:37:09;26.60;1.00
5802;DHT22;2927;49.366;8.530;2023-05-31T14:39:36;26.60;1.00
5802;DHT22;2927;49.366;8.530;2023-05-31T14:42:01;26.60;1.00
5802;DHT22;2927;49.366;8.530;2023-05-31T14:44:27;26.80;1.00
5802;DHT22;2927;49.366;8.530;2023-05-31T14:46:52;27.00;1.00
5802;DHT22;2927;49.366;8.530;2023-05-31T14:49:20;27.00;1.00
5802;DHT22;2927;49.366;8.530;2023-05-31T14:51:47;27.10;1.00
5802;DHT22;2927;49.366;8.530;2023-05-31T14:54:13;27.10;1.00
5802;DHT22;2927;49.366;8.530;2023-05-31T14:56:38;27.00;1.00
5802;DHT22;2927;49.366;8.530;2023-05-31T14:59:04;27.00;1.00
5802;DHT22;2927;49.366;8.530;2023-05-31T15:01:30;26.90;1.00
5802;DHT22;2927;49.366;8.530;2023-05-31T15:03:55;26.90;1.00
5802;DHT22;2927;49.366;8.530;2023-05-31T15:06:21;27.00;1.00
5802;DHT22;2927;49.366;8.530;2023-05-31T15:08:48;26.90;1.00
5802;DHT22;2927;49.366;8.530;2023-05-31T15:11:13;26.90;1.00
5802;DHT22;2927;49.366;8.530;2023-05-31T15:13:39;27.10;1.00
5802;DHT22;2927;49.366;8.530;2023-05-31T15:16:05;27.00;1.00
5802;DHT22;2927;49.366;8.530;2023-05-31T15:18:30;27.20;1.00
5802;DHT22;2927;49.366;8.530;2023-05-31T15:20:56;27.10;1.00
5802;DHT22;2927;49.366;8.530;2023-05-31T15:23:21;27.10;1.00
5802;DHT22;2927;49.366;8.530;2023-05-31T15:25:47;27.10;1.00
5802;DHT22;2927;49.366;8.530;2023-05-31T15:28:12;27.00;1.00
5802;DHT22;2927;49.366;8.530;2023-05-31T15:30:38;26.90;1.00
5802;DHT22;2927;49.366;8.530;2023-05-31T15:33:04;27.10;1.00
5802;DHT22;2927;49.366;8.530;2023-05-31T15:35:29;27.00;1.00
5802;DHT22;2927;49.366;8.530;2023-05-31T15:37:59;27.00;1.00
5802;DHT22;2927;49.366;8.530;2023-05-31T15:40:25;27.10;1.00
5802;DHT22;2927;49.366;8.530;2023-05-31T15:42:51;27.00;1.00
5802;DHT22;2927;49.366;8.530;2023-05-31T15:45:16;27.00;1.00
5802;DHT22;2927;49.366;8.530;2023-05-31T15:47:42;26.90;1.00
5802;DHT22;2927;49.366;8.530;2023-05-31T15:50:08;26.90;1.00
5802;DHT22;2927;49.366;8.530;2023-05-31T15:52:34;27.10;1.00
5802;DHT22;2927;49.366;8.530;2023-05-31T15:54:59;27.20;1.00
5802;DHT22;2927;49.366;8.530;2023-05-31T15:57:25;27.10;1.00
5802;DHT22;2927;49.366;8.530;2023-05-31T15:59:51;27.10;1.00
5802;DHT22;2927;49.366;8.530;2023-05-31T16:02:16;27.20;1.00
5802;DHT22;2927;49.366;8.530;2023-05-31T16:04:42;27.30;1.00
5802;DHT22;2927;49.366;8.530;2023-05-31T16:07:07;27.40;1.00
5802;DHT22;2927;49.366;8.530;2023-05-31T16:09:33;27.40;1.00
5802;DHT22;2927;49.366;8.530;2023-05-31T16:11:58;27.40;1.00
5802;DHT22;2927;49.366;8.530;2023-05-31T16:14:24;27.40;1.00
5802;DHT22;2927;49.366;8.530;2023-05-31T16:16:49;27.30;1.00
5802;DHT22;2927;49.366;8.530;2023-05-31T16:19:15;27.20;1.00
5802;DHT22;2927;49.366;8.530;2023-05-31T16:21:41;27.40;1.00
5802;DHT22;2927;49.366;8.530;2023-05-31T16:24:06;27.40;1.00
5802;DHT22;2927;49.366;8.530;2023-05-31T16:26:34;27.20;1.00
5802;DHT22;2927;49.366;8.530;2023-05-31T16:29:00;27.20;1.00
5802;DHT22;2927;49.366;8.530;2023-05-31T16:31:26;27.20;1.00